North Wind — D5AC3 — position and weather

sailwx.info

Track history (hours):
 
Tides and Currents Weather Stations Pressure Air Temp Water Temp Dewpoint Dewpoint Depression Visibility Wind Speed Wind Dir Waves Ship Positions

North Wind

Last reported at 2018-Jun-01 21:13 UTC. Time now 2018-Jun-18 09:51 UTC.
Position N 49°26' W 004°42'.
Warning: this ship's position is 16 days out of date.

Length 170 m; draft 9.5 m.

Type: Cargo ship. MMSI: 636015347.

Date/timePositionNaut miles runAvg speedWind from/ knotsBaromVisibWave heightAir tempDewpointWater temp
2018-Jun-01 21:13N 49°26' W 004°42'511.1
2018-Jun-01 20:44N 49°28' W 004°34'310.8
2018-Jun-01 20:29N 49°29' W 004°31'3910.3
2018-Jun-01 16:43N 49°46' W 003°36'311.4
2018-Jun-01 16:28N 49°47' W 003°33'611.8
2018-Jun-01 15:58N 49°50' W 003°25'612.3
2018-Jun-01 15:30N 49°53' W 003°17'612.6
2018-Jun-01 15:00N 49°55' W 003°08'612.8
2018-Jun-01 14:30N 49°58' W 002°59'612.6
2018-Jun-01 14:00N 50°00' W 002°50'612.3
2018-Jun-01 13:30N 50°02' W 002°41'611.8
2018-Jun-01 13:00N 50°04' W 002°32'2010.3
2018-Jun-01 11:07N 50°09' W 002°02'1 8.8
2018-Jun-01 10:59N 50°09' W 002°01'4 8.4
2018-Jun-01 10:30N 50°10' W 001°55'4 8.0
2018-Jun-01 10:00N 50°11' W 001°49'4 7.7
2018-Jun-01 09:30N 50°12' W 001°43'4 7.8
2018-Jun-01 09:00N 50°13' W 001°37'4 8.1
2018-Jun-01 08:30N 50°15' W 001°31'4 8.7
2018-Jun-01 08:00N 50°16' W 001°24'5 9.5
2018-Jun-01 07:30N 50°17' W 001°17'1611.5
2018-Jun-01 06:05N 50°21' W 000°53'313.2
2018-Jun-01 05:53N 50°22' W 000°48'514.5
2018-Jun-01 05:30N 50°23' W 000°40'714.6
2018-Jun-01 05:00N 50°25' W 000°29'713.3
2018-Jun-01 04:27N 50°27' W 000°18'913.1
2018-Jun-01 03:46N 50°30' W 000°05'412.9
2018-Jun-01 03:29N 50°31' E 000°01'712.7
2018-Jun-01 02:54N 50°33' E 000°12'512.4
2018-Jun-01 02:30N 50°34' E 000°20'612.1
2018-Jun-01 02:00N 50°36' E 000°29'611.3
2018-Jun-01 01:30N 50°38' E 000°37'510.9
2018-Jun-01 01:00N 50°41' E 000°44'510.5
2018-Jun-01 00:30N 50°44' E 000°51'2510.7
2018-May-31 22:12N 51°00' E 001°21'212.6
2018-May-31 22:00N 51°02' E 001°23'714.0
2018-May-31 21:30N 51°06' E 001°32'714.6
2018-May-31 21:00N 51°11' E 001°41'713.7
2018-May-31 20:30N 51°16' E 001°47'713.6
2018-May-31 20:00N 51°23' E 001°52'612.6
2018-May-31 19:30N 51°28' E 001°57'612.1
2018-May-31 19:01N 51°33' E 002°03'611.6
2018-May-31 18:31N 51°37' E 002°10'611.3
2018-May-31 18:00N 51°41' E 002°16'510.9
2018-May-31 17:30N 51°45' E 002°22'510.5
2018-May-31 17:00N 51°49' E 002°28'510.2
2018-May-31 16:30N 51°53' E 002°33'510.1
2018-May-31 16:00N 51°56' E 002°39'510.0
2018-May-31 15:30N 52°00' E 002°44'5 9.9
2018-May-31 14:59N 52°04' E 002°50'5 9.9
2018-May-31 14:28N 52°08' E 002°55'1010.4
2018-May-31 13:31N 52°16' E 003°04'011.0
2018-May-31 13:30N 52°16' E 003°05'611.3
2018-May-31 13:00N 52°21' E 003°10'612.0
2018-May-31 12:29N 52°26' E 003°16'612.2
2018-May-31 12:00N 52°30' E 003°21'1212.3
2018-May-31 11:03N 52°40' E 003°33'3012.6
2018-May-31 08:41N 53°01' E 004°07'411.8
2018-May-31 08:21N 53°04' E 004°12'511.5
2018-May-31 07:56N 53°07' E 004°18'610.9
2018-May-31 07:26N 53°11' E 004°25'510.4
2018-May-31 06:54N 53°16' E 004°28'610.3
2018-May-31 06:21N 53°21' E 004°31'410.3
2018-May-31 06:00N 53°25' E 004°33'510.5
2018-May-31 05:29N 53°30' E 004°36'611.6
2018-May-31 04:59N 53°36' E 004°39'712.9
2018-May-31 04:25N 53°42' E 004°43'512.1
2018-May-31 04:00N 53°47' E 004°46'612.0
2018-May-31 03:30N 53°53' E 004°50'612.1
2018-May-31 03:00N 53°58' E 004°54'29211.1
2018-May-30 00:42N 57°51' E 010°10'1512.1
2018-May-29 23:26N 57°51' E 010°39'510.9
2018-May-29 23:00N 57°49' E 010°47'611.9
2018-May-29 22:30N 57°45' E 010°54'611.9
2018-May-29 22:00N 57°40' E 011°02'611.8
2018-May-29 21:30N 57°36' E 011°10'611.6
2018-May-29 21:00N 57°32' E 011°18'611.4
2018-May-29 20:30N 57°29' E 011°26'611.2
2018-May-29 19:59N 57°23' E 011°30'611.0
2018-May-29 19:28N 57°18' E 011°33'511.0
2018-May-29 19:00N 57°13' E 011°36'610.9
2018-May-29 18:26N 57°07' E 011°40'1510.7
2018-May-29 17:03N 56°53' E 011°49'111.2
2018-May-29 17:00N 56°53' E 011°49'611.1
2018-May-29 16:30N 56°47' E 011°52'9110.3
2018-May-29 07:42N 55°21' E 011°02'811.7
2018-May-29 07:02N 55°13' E 011°06'011.7
2018-May-29 07:00N 55°13' E 011°06'611.9
2018-May-29 06:30N 55°07' E 011°03'612.1
2018-May-29 06:00N 55°01' E 011°02'611.2
2018-May-29 05:30N 54°57' E 010°56'611.6
2018-May-29 05:00N 54°51' E 010°53'611.4
2018-May-29 04:30N 54°46' E 010°52'5 9.5
2018-May-29 04:00N 54°41' E 010°56'611.9
2018-May-29 03:30N 54°38' E 011°04'612.4
2018-May-29 03:00N 54°35' E 011°14'612.2
2018-May-29 02:30N 54°33' E 011°23'612.1
2018-May-29 02:00N 54°30' E 011°33'612.0
2018-May-29 01:30N 54°27' E 011°42'611.6
2018-May-29 01:00N 54°26' E 011°52'611.9
2018-May-29 00:30N 54°26' E 012°02'511.0
2018-May-29 00:00N 54°27' E 012°11'612.1
2018-May-28 23:30N 54°33' E 012°14'611.4
2018-May-28 23:00N 54°38' E 012°20'611.8
2018-May-28 22:30N 54°41' E 012°29'611.8
2018-May-28 22:00N 54°44' E 012°37'611.3
2018-May-28 21:30N 54°47' E 012°46'611.6
2018-May-28 21:00N 54°47' E 012°56'611.8
2018-May-28 20:30N 54°46' E 013°06'811.8
2018-May-28 19:51N 54°46' E 013°20'611.8
2018-May-28 19:22N 54°46' E 013°30'411.8
2018-May-28 19:00N 54°45' E 013°37'612.0
2018-May-28 18:30N 54°44' E 013°47'611.8
2018-May-28 18:00N 54°42' E 013°57'611.8
2018-May-28 17:30N 54°41' E 014°07'611.8
2018-May-28 17:00N 54°39' E 014°16'611.9
2018-May-28 16:30N 54°38' E 014°26'611.8
2018-May-28 16:00N 54°39' E 014°36'611.8
2018-May-28 15:30N 54°39' E 014°47'611.9
2018-May-28 15:00N 54°40' E 014°57'611.8
2018-May-28 14:30N 54°41' E 015°07'611.9
2018-May-28 14:00N 54°42' E 015°17'611.8
2018-May-28 13:30N 54°43' E 015°27'611.8
2018-May-28 13:00N 54°44' E 015°37'612.1
2018-May-28 12:30N 54°45' E 015°47'611.9
2018-May-28 12:00N 54°46' E 015°58'611.7
2018-May-28 11:30N 54°47' E 016°08'611.7
2018-May-28 11:00N 54°48' E 016°18'1511.6
2018-May-28 09:44N 54°50' E 016°43'311.6
2018-May-28 09:30N 54°50' E 016°48'811.5
2018-May-28 08:46N 54°52' E 017°02'611.6
2018-May-28 08:17N 54°54' E 017°12'1611.8
2018-May-28 06:55N 54°56' E 017°39'511.7
2018-May-28 06:30N 54°57' E 017°47'611.6
2018-May-28 06:00N 54°58' E 017°57'611.6
2018-May-28 05:30N 54°59' E 018°08'611.9
2018-May-28 05:00N 54°59' E 018°18'611.9
2018-May-28 04:30N 55°00' E 018°28'611.9
2018-May-28 04:01N 55°01' E 018°38'611.4
2018-May-28 03:30N 54°59' E 018°48'611.6
2018-May-28 03:00N 54°57' E 018°57'611.6
2018-May-28 02:30N 54°54' E 019°06'611.5
2018-May-28 02:00N 54°51' E 019°15'611.5
2018-May-28 01:30N 54°49' E 019°24'1211.7
2018-May-28 00:30N 54°43' E 019°41'611.4
2018-May-28 00:01N 54°40' E 019°49'4 7.0
2018-May-27 23:30N 54°38' E 019°54'3 6.0
2018-May-27 23:00N 54°38' E 019°60'3 6.5
2018-May-27 22:30N 54°39' E 020°05'3 5.7
2018-May-27 21:58N 54°41' E 020°09'2 3.6
2018-May-27 21:25N 54°41' E 020°13'0 0.0
2018-May-27 05:18N 54°41' E 020°13'0 0.0
2018-May-27 04:57N 54°41' E 020°13'0 0.0
2018-May-26 19:12N 54°41' E 020°13'0 0.0
2018-May-26 06:12N 54°41' E 020°13'0 0.0
2018-May-26 05:30N 54°41' E 020°13'0 0.0
2018-May-26 05:00N 54°41' E 020°13'0 0.0
2018-May-26 03:30N 54°41' E 020°13'0 0.0
2018-May-26 00:51N 54°41' E 020°13'0 0.0
2018-May-25 20:45N 54°41' E 020°13'0 0.0
2018-May-25 19:51N 54°41' E 020°13'0 0.0
2018-May-25 19:27N 54°41' E 020°13'0 0.0
2018-May-25 18:00N 54°41' E 020°13'0 0.0
2018-May-25 17:30N 54°41' E 020°13'0 0.0
2018-May-25 17:00N 54°41' E 020°13'0 0.0
2018-May-25 10:48N 54°41' E 020°13'0 0.0
2018-May-25 09:15N 54°41' E 020°13'0 0.0
2018-May-25 08:57N 54°41' E 020°13'0 0.0
2018-May-25 08:27N 54°41' E 020°13'0 0.0
2018-May-25 07:57N 54°41' E 020°13'0 0.0
2018-May-25 07:21N 54°41' E 020°13'0 0.0
2018-May-25 07:00N 54°41' E 020°13'0 0.0
2018-May-25 06:30N 54°41' E 020°13'0 0.0
2018-May-25 05:57N 54°41' E 020°13'0 0.0
2018-May-25 05:27N 54°41' E 020°13'0 0.0
2018-May-25 05:00N 54°41' E 020°13'0 0.0
2018-May-25 04:30N 54°41' E 020°13'0 0.0
2018-May-25 04:00N 54°41' E 020°13'0 0.0
2018-May-25 03:30N 54°41' E 020°13'0 0.0
2018-May-25 03:00N 54°41' E 020°13'0 0.0
2018-May-25 02:30N 54°41' E 020°13'0 0.0
2018-May-25 02:00N 54°41' E 020°13'0 0.0
2018-May-25 01:30N 54°41' E 020°13'0 0.0
2018-May-25 01:00N 54°41' E 020°13'0 0.0
2018-May-25 00:30N 54°41' E 020°13'0 0.0
2018-May-25 00:00N 54°41' E 020°13'0 0.0
2018-May-24 23:30N 54°41' E 020°13'0 0.0
2018-May-24 23:00N 54°41' E 020°13'0 0.0
2018-May-24 22:30N 54°41' E 020°13'0 0.0
2018-May-24 21:57N 54°41' E 020°13'0 0.0
2018-May-24 21:30N 54°41' E 020°13'0 0.0
2018-May-24 20:57N 54°41' E 020°13'0 0.0
2018-May-24 20:30N 54°41' E 020°13'0 0.0
2018-May-24 20:00N 54°41' E 020°13'0 0.0
2018-May-24 19:30N 54°41' E 020°13'0 0.0
2018-May-24 19:00N 54°41' E 020°13'0 0.0
2018-May-24 18:30N 54°41' E 020°13'0 0.0
2018-May-24 18:00N 54°41' E 020°13'0 0.0
2018-May-24 17:30N 54°41' E 020°13'0 0.0
2018-May-24 17:00N 54°41' E 020°13'0 0.0
2018-May-24 16:21N 54°41' E 020°13'0 0.0
2018-May-24 15:48N 54°41' E 020°13'0 0.0
2018-May-24 15:24N 54°41' E 020°13'0 0.0
2018-May-24 15:00N 54°41' E 020°13'0 0.0
2018-May-24 14:27N 54°41' E 020°13'0 0.0
2018-May-24 13:57N 54°41' E 020°13'0 0.0
2018-May-24 13:15N 54°41' E 020°13'0 0.0
2018-May-24 09:00N 54°41' E 020°13'0 0.0
2018-May-24 08:30N 54°41' E 020°13'0 0.0
2018-May-24 08:00N 54°41' E 020°13'0 0.0
2018-May-24 07:27N 54°41' E 020°13'0 0.0
2018-May-24 07:00N 54°41' E 020°13'0 0.0
2018-May-24 06:30N 54°41' E 020°13'0 0.0
2018-May-24 06:00N 54°41' E 020°13'0 0.0
2018-May-24 05:30N 54°41' E 020°13'0 0.0
2018-May-24 05:00N 54°41' E 020°13'0 0.0
2018-May-24 04:30N 54°41' E 020°13'0 0.0
2018-May-24 04:00N 54°41' E 020°13'0 0.0
2018-May-24 03:30N 54°41' E 020°13'0 0.0
2018-May-24 03:00N 54°41' E 020°13'0 0.0
2018-May-24 02:27N 54°41' E 020°13'0 0.0
2018-May-24 02:00N 54°41' E 020°13'0 0.0
2018-May-24 01:30N 54°41' E 020°13'0 0.0
2018-May-24 01:00N 54°41' E 020°13'0 0.0
2018-May-24 00:30N 54°41' E 020°13'0 0.0
2018-May-23 23:57N 54°41' E 020°13'0 0.0
2018-May-23 23:30N 54°41' E 020°13'0 0.0
2018-May-23 23:00N 54°41' E 020°13'0 0.0
2018-May-23 22:30N 54°41' E 020°13'0 0.0
2018-May-23 22:00N 54°41' E 020°13'0 0.0
2018-May-23 21:21N 54°41' E 020°13'0 0.0
2018-May-23 20:57N 54°41' E 020°13'0 0.0
2018-May-23 20:30N 54°41' E 020°13'0 0.0
2018-May-23 20:00N 54°41' E 020°13'0 0.2
2018-May-23 19:27N 54°41' E 020°13'0 0.1
2018-May-23 18:51N 54°41' E 020°12'0 0.0
2018-May-23 18:24N 54°41' E 020°12'0 0.0
2018-May-23 18:00N 54°41' E 020°12'0 0.0
2018-May-23 17:30N 54°41' E 020°12'0 0.0
2018-May-23 16:57N 54°41' E 020°12'0 0.0
2018-May-23 16:30N 54°41' E 020°12'0 0.0
2018-May-23 16:00N 54°41' E 020°12'0 0.0
2018-May-23 15:27N 54°41' E 020°12'0 0.0
2018-May-23 15:00N 54°41' E 020°12'0 0.0
2018-May-23 14:30N 54°41' E 020°12'0 0.0
2018-May-23 13:57N 54°41' E 020°12'0 0.0
2018-May-23 13:27N 54°41' E 020°12'0 0.0
2018-May-23 13:00N 54°41' E 020°12'0 0.0
2018-May-23 12:27N 54°41' E 020°12'0 0.0
2018-May-23 11:48N 54°41' E 020°12'0 0.0
2018-May-23 11:18N 54°41' E 020°12'0 0.0
2018-May-23 10:12N 54°41' E 020°12'0 0.0
2018-May-23 09:51N 54°41' E 020°12'0 0.0
2018-May-23 09:30N 54°41' E 020°12'0 0.0
2018-May-23 09:00N 54°41' E 020°12'0 0.0
2018-May-23 08:30N 54°41' E 020°12'0 0.0
2018-May-23 07:39N 54°41' E 020°12'0 0.0
2018-May-23 06:21N 54°41' E 020°12'0 0.0
2018-May-23 06:00N 54°41' E 020°12'0 0.0
2018-May-23 05:30N 54°41' E 020°12'0 0.0
2018-May-23 05:00N 54°41' E 020°12'0 0.0
2018-May-23 04:06N 54°41' E 020°12'0 0.0
2018-May-23 03:54N 54°41' E 020°12'0 0.0
2018-May-23 03:24N 54°41' E 020°12'0 0.0
2018-May-23 03:00N 54°41' E 020°12'0 0.0
2018-May-23 02:24N 54°41' E 020°12'0 0.0
2018-May-23 02:00N 54°41' E 020°12'0 0.0
2018-May-23 01:30N 54°41' E 020°12'0 0.0
2018-May-23 00:57N 54°41' E 020°12'0 0.0
2018-May-23 00:30N 54°41' E 020°12'  
Track history (hours):
 
Tides and Currents Weather Stations Pressure Air Temp Water Temp Dewpoint Dewpoint Depression Visibility Wind Speed Wind Dir Waves Ship Positions

North Wind

Last reported at 2018-Jun-01 21:13 UTC. Time now 2018-Jun-18 09:51 UTC.
Position N 49°26' W 004°42'.
Warning: this ship's position is 16 days out of date.

Length 170 m; draft 9.5 m.

Type: Cargo ship. MMSI: 636015347.

Date/timePositionNaut miles runAvg speedWind from/ knotsBaromVisibWave heightAir tempDewpointWater temp
2018-Jun-01 21:13N 49°26' W 004°42'511.1
2018-Jun-01 20:44N 49°28' W 004°34'310.8
2018-Jun-01 20:29N 49°29' W 004°31'3910.3
2018-Jun-01 16:43N 49°46' W 003°36'311.4
2018-Jun-01 16:28N 49°47' W 003°33'611.8
2018-Jun-01 15:58N 49°50' W 003°25'612.3
2018-Jun-01 15:30N 49°53' W 003°17'612.6
2018-Jun-01 15:00N 49°55' W 003°08'612.8
2018-Jun-01 14:30N 49°58' W 002°59'612.6
2018-Jun-01 14:00N 50°00' W 002°50'612.3
2018-Jun-01 13:30N 50°02' W 002°41'611.8
2018-Jun-01 13:00N 50°04' W 002°32'2010.3
2018-Jun-01 11:07N 50°09' W 002°02'1 8.8
2018-Jun-01 10:59N 50°09' W 002°01'4 8.4
2018-Jun-01 10:30N 50°10' W 001°55'4 8.0
2018-Jun-01 10:00N 50°11' W 001°49'4 7.7
2018-Jun-01 09:30N 50°12' W 001°43'4 7.8
2018-Jun-01 09:00N 50°13' W 001°37'4 8.1
2018-Jun-01 08:30N 50°15' W 001°31'4 8.7
2018-Jun-01 08:00N 50°16' W 001°24'5 9.5
2018-Jun-01 07:30N 50°17' W 001°17'1611.5
2018-Jun-01 06:05N 50°21' W 000°53'313.2
2018-Jun-01 05:53N 50°22' W 000°48'514.5
2018-Jun-01 05:30N 50°23' W 000°40'714.6
2018-Jun-01 05:00N 50°25' W 000°29'713.3
2018-Jun-01 04:27N 50°27' W 000°18'913.1
2018-Jun-01 03:46N 50°30' W 000°05'412.9
2018-Jun-01 03:29N 50°31' E 000°01'712.7
2018-Jun-01 02:54N 50°33' E 000°12'512.4
2018-Jun-01 02:30N 50°34' E 000°20'612.1
2018-Jun-01 02:00N 50°36' E 000°29'611.3
2018-Jun-01 01:30N 50°38' E 000°37'510.9
2018-Jun-01 01:00N 50°41' E 000°44'510.5
2018-Jun-01 00:30N 50°44' E 000°51'2510.7
2018-May-31 22:12N 51°00' E 001°21'212.6
2018-May-31 22:00N 51°02' E 001°23'714.0
2018-May-31 21:30N 51°06' E 001°32'714.6
2018-May-31 21:00N 51°11' E 001°41'713.7
2018-May-31 20:30N 51°16' E 001°47'713.6
2018-May-31 20:00N 51°23' E 001°52'612.6
2018-May-31 19:30N 51°28' E 001°57'612.1
2018-May-31 19:01N 51°33' E 002°03'611.6
2018-May-31 18:31N 51°37' E 002°10'611.3
2018-May-31 18:00N 51°41' E 002°16'510.9
2018-May-31 17:30N 51°45' E 002°22'510.5
2018-May-31 17:00N 51°49' E 002°28'510.2
2018-May-31 16:30N 51°53' E 002°33'510.1
2018-May-31 16:00N 51°56' E 002°39'510.0
2018-May-31 15:30N 52°00' E 002°44'5 9.9
2018-May-31 14:59N 52°04' E 002°50'5 9.9
2018-May-31 14:28N 52°08' E 002°55'1010.4
2018-May-31 13:31N 52°16' E 003°04'011.0
2018-May-31 13:30N 52°16' E 003°05'611.3
2018-May-31 13:00N 52°21' E 003°10'612.0
2018-May-31 12:29N 52°26' E 003°16'612.2
2018-May-31 12:00N 52°30' E 003°21'1212.3
2018-May-31 11:03N 52°40' E 003°33'3012.6
2018-May-31 08:41N 53°01' E 004°07'411.8
2018-May-31 08:21N 53°04' E 004°12'511.5
2018-May-31 07:56N 53°07' E 004°18'610.9
2018-May-31 07:26N 53°11' E 004°25'510.4
2018-May-31 06:54N 53°16' E 004°28'610.3
2018-May-31 06:21N 53°21' E 004°31'410.3
2018-May-31 06:00N 53°25' E 004°33'510.5
2018-May-31 05:29N 53°30' E 004°36'611.6
2018-May-31 04:59N 53°36' E 004°39'712.9
2018-May-31 04:25N 53°42' E 004°43'512.1
2018-May-31 04:00N 53°47' E 004°46'612.0
2018-May-31 03:30N 53°53' E 004°50'612.1
2018-May-31 03:00N 53°58' E 004°54'29211.1
2018-May-30 00:42N 57°51' E 010°10'1512.1
2018-May-29 23:26N 57°51' E 010°39'510.9
2018-May-29 23:00N 57°49' E 010°47'611.9
2018-May-29 22:30N 57°45' E 010°54'611.9
2018-May-29 22:00N 57°40' E 011°02'611.8
2018-May-29 21:30N 57°36' E 011°10'611.6
2018-May-29 21:00N 57°32' E 011°18'611.4
2018-May-29 20:30N 57°29' E 011°26'611.2
2018-May-29 19:59N 57°23' E 011°30'611.0
2018-May-29 19:28N 57°18' E 011°33'511.0
2018-May-29 19:00N 57°13' E 011°36'610.9
2018-May-29 18:26N 57°07' E 011°40'1510.7
2018-May-29 17:03N 56°53' E 011°49'111.2
2018-May-29 17:00N 56°53' E 011°49'611.1
2018-May-29 16:30N 56°47' E 011°52'9110.3
2018-May-29 07:42N 55°21' E 011°02'811.7
2018-May-29 07:02N 55°13' E 011°06'011.7
2018-May-29 07:00N 55°13' E 011°06'611.9
2018-May-29 06:30N 55°07' E 011°03'612.1
2018-May-29 06:00N 55°01' E 011°02'611.2
2018-May-29 05:30N 54°57' E 010°56'611.6
2018-May-29 05:00N 54°51' E 010°53'611.4
2018-May-29 04:30N 54°46' E 010°52'5 9.5
2018-May-29 04:00N 54°41' E 010°56'611.9
2018-May-29 03:30N 54°38' E 011°04'612.4
2018-May-29 03:00N 54°35' E 011°14'612.2
2018-May-29 02:30N 54°33' E 011°23'612.1
2018-May-29 02:00N 54°30' E 011°33'612.0
2018-May-29 01:30N 54°27' E 011°42'611.6
2018-May-29 01:00N 54°26' E 011°52'611.9
2018-May-29 00:30N 54°26' E 012°02'511.0
2018-May-29 00:00N 54°27' E 012°11'612.1
2018-May-28 23:30N 54°33' E 012°14'611.4
2018-May-28 23:00N 54°38' E 012°20'611.8
2018-May-28 22:30N 54°41' E 012°29'611.8
2018-May-28 22:00N 54°44' E 012°37'611.3
2018-May-28 21:30N 54°47' E 012°46'611.6
2018-May-28 21:00N 54°47' E 012°56'611.8
2018-May-28 20:30N 54°46' E 013°06'811.8
2018-May-28 19:51N 54°46' E 013°20'611.8
2018-May-28 19:22N 54°46' E 013°30'411.8
2018-May-28 19:00N 54°45' E 013°37'612.0
2018-May-28 18:30N 54°44' E 013°47'611.8
2018-May-28 18:00N 54°42' E 013°57'611.8
2018-May-28 17:30N 54°41' E 014°07'611.8
2018-May-28 17:00N 54°39' E 014°16'611.9
2018-May-28 16:30N 54°38' E 014°26'611.8
2018-May-28 16:00N 54°39' E 014°36'611.8
2018-May-28 15:30N 54°39' E 014°47'611.9
2018-May-28 15:00N 54°40' E 014°57'611.8
2018-May-28 14:30N 54°41' E 015°07'611.9
2018-May-28 14:00N 54°42' E 015°17'611.8
2018-May-28 13:30N 54°43' E 015°27'611.8
2018-May-28 13:00N 54°44' E 015°37'612.1
2018-May-28 12:30N 54°45' E 015°47'611.9
2018-May-28 12:00N 54°46' E 015°58'611.7
2018-May-28 11:30N 54°47' E 016°08'611.7
2018-May-28 11:00N 54°48' E 016°18'1511.6
2018-May-28 09:44N 54°50' E 016°43'311.6
2018-May-28 09:30N 54°50' E 016°48'811.5
2018-May-28 08:46N 54°52' E 017°02'611.6
2018-May-28 08:17N 54°54' E 017°12'1611.8
2018-May-28 06:55N 54°56' E 017°39'511.7
2018-May-28 06:30N 54°57' E 017°47'611.6
2018-May-28 06:00N 54°58' E 017°57'611.6
2018-May-28 05:30N 54°59' E 018°08'611.9
2018-May-28 05:00N 54°59' E 018°18'611.9
2018-May-28 04:30N 55°00' E 018°28'611.9
2018-May-28 04:01N 55°01' E 018°38'611.4
2018-May-28 03:30N 54°59' E 018°48'611.6
2018-May-28 03:00N 54°57' E 018°57'611.6
2018-May-28 02:30N 54°54' E 019°06'611.5
2018-May-28 02:00N 54°51' E 019°15'611.5
2018-May-28 01:30N 54°49' E 019°24'1211.7
2018-May-28 00:30N 54°43' E 019°41'611.4
2018-May-28 00:01N 54°40' E 019°49'4 7.0
2018-May-27 23:30N 54°38' E 019°54'3 6.0
2018-May-27 23:00N 54°38' E 019°60'3 6.5
2018-May-27 22:30N 54°39' E 020°05'3 5.7
2018-May-27 21:58N 54°41' E 020°09'2 3.6
2018-May-27 21:25N 54°41' E 020°13'0 0.0
2018-May-27 05:18N 54°41' E 020°13'0 0.0
2018-May-27 04:57N 54°41' E 020°13'0 0.0
2018-May-26 19:12N 54°41' E 020°13'0 0.0
2018-May-26 06:12N 54°41' E 020°13'0 0.0
2018-May-26 05:30N 54°41' E 020°13'0 0.0
2018-May-26 05:00N 54°41' E 020°13'0 0.0
2018-May-26 03:30N 54°41' E 020°13'0 0.0
2018-May-26 00:51N 54°41' E 020°13'0 0.0
2018-May-25 20:45N 54°41' E 020°13'0 0.0
2018-May-25 19:51N 54°41' E 020°13'0 0.0
2018-May-25 19:27N 54°41' E 020°13'0 0.0
2018-May-25 18:00N 54°41' E 020°13'0 0.0
2018-May-25 17:30N 54°41' E 020°13'0 0.0
2018-May-25 17:00N 54°41' E 020°13'0 0.0
2018-May-25 10:48N 54°41' E 020°13'0 0.0
2018-May-25 09:15N 54°41' E 020°13'0 0.0
2018-May-25 08:57N 54°41' E 020°13'0 0.0
2018-May-25 08:27N 54°41' E 020°13'0 0.0
2018-May-25 07:57N 54°41' E 020°13'0 0.0
2018-May-25 07:21N 54°41' E 020°13'0 0.0
2018-May-25 07:00N 54°41' E 020°13'0 0.0
2018-May-25 06:30N 54°41' E 020°13'0 0.0
2018-May-25 05:57N 54°41' E 020°13'0 0.0
2018-May-25 05:27N 54°41' E 020°13'0 0.0
2018-May-25 05:00N 54°41' E 020°13'0 0.0
2018-May-25 04:30N 54°41' E 020°13'0 0.0
2018-May-25 04:00N 54°41' E 020°13'0 0.0
2018-May-25 03:30N 54°41' E 020°13'0 0.0
2018-May-25 03:00N 54°41' E 020°13'0 0.0
2018-May-25 02:30N 54°41' E 020°13'0 0.0
2018-May-25 02:00N 54°41' E 020°13'0 0.0
2018-May-25 01:30N 54°41' E 020°13'0 0.0
2018-May-25 01:00N 54°41' E 020°13'0 0.0
2018-May-25 00:30N 54°41' E 020°13'0 0.0
2018-May-25 00:00N 54°41' E 020°13'0 0.0
2018-May-24 23:30N 54°41' E 020°13'0 0.0
2018-May-24 23:00N 54°41' E 020°13'0 0.0
2018-May-24 22:30N 54°41' E 020°13'0 0.0
2018-May-24 21:57N 54°41' E 020°13'0 0.0
2018-May-24 21:30N 54°41' E 020°13'0 0.0
2018-May-24 20:57N 54°41' E 020°13'0 0.0
2018-May-24 20:30N 54°41' E 020°13'0 0.0
2018-May-24 20:00N 54°41' E 020°13'0 0.0
2018-May-24 19:30N 54°41' E 020°13'0 0.0
2018-May-24 19:00N 54°41' E 020°13'0 0.0
2018-May-24 18:30N 54°41' E 020°13'0 0.0
2018-May-24 18:00N 54°41' E 020°13'0 0.0
2018-May-24 17:30N 54°41' E 020°13'0 0.0
2018-May-24 17:00N 54°41' E 020°13'0 0.0
2018-May-24 16:21N 54°41' E 020°13'0 0.0
2018-May-24 15:48N 54°41' E 020°13'0 0.0
2018-May-24 15:24N 54°41' E 020°13'0 0.0
2018-May-24 15:00N 54°41' E 020°13'0 0.0
2018-May-24 14:27N 54°41' E 020°13'0 0.0
2018-May-24 13:57N 54°41' E 020°13'0 0.0
2018-May-24 13:15N 54°41' E 020°13'0 0.0
2018-May-24 09:00N 54°41' E 020°13'0 0.0
2018-May-24 08:30N 54°41' E 020°13'0 0.0
2018-May-24 08:00N 54°41' E 020°13'0 0.0
2018-May-24 07:27N 54°41' E 020°13'0 0.0
2018-May-24 07:00N 54°41' E 020°13'0 0.0
2018-May-24 06:30N 54°41' E 020°13'0 0.0
2018-May-24 06:00N 54°41' E 020°13'0 0.0
2018-May-24 05:30N 54°41' E 020°13'0 0.0
2018-May-24 05:00N 54°41' E 020°13'0 0.0
2018-May-24 04:30N 54°41' E 020°13'0 0.0
2018-May-24 04:00N 54°41' E 020°13'0 0.0
2018-May-24 03:30N 54°41' E 020°13'0 0.0
2018-May-24 03:00N 54°41' E 020°13'0 0.0
2018-May-24 02:27N 54°41' E 020°13'0 0.0
2018-May-24 02:00N 54°41' E 020°13'0 0.0
2018-May-24 01:30N 54°41' E 020°13'0 0.0
2018-May-24 01:00N 54°41' E 020°13'0 0.0
2018-May-24 00:30N 54°41' E 020°13'0 0.0
2018-May-23 23:57N 54°41' E 020°13'0 0.0
2018-May-23 23:30N 54°41' E 020°13'0 0.0
2018-May-23 23:00N 54°41' E 020°13'0 0.0
2018-May-23 22:30N 54°41' E 020°13'0 0.0
2018-May-23 22:00N 54°41' E 020°13'0 0.0
2018-May-23 21:21N 54°41' E 020°13'0 0.0
2018-May-23 20:57N 54°41' E 020°13'0 0.0
2018-May-23 20:30N 54°41' E 020°13'0 0.0
2018-May-23 20:00N 54°41' E 020°13'0 0.2
2018-May-23 19:27N 54°41' E 020°13'0 0.1
2018-May-23 18:51N 54°41' E 020°12'0 0.0
2018-May-23 18:24N 54°41' E 020°12'0 0.0
2018-May-23 18:00N 54°41' E 020°12'0 0.0
2018-May-23 17:30N 54°41' E 020°12'0 0.0
2018-May-23 16:57N 54°41' E 020°12'0 0.0
2018-May-23 16:30N 54°41' E 020°12'0 0.0
2018-May-23 16:00N 54°41' E 020°12'0 0.0
2018-May-23 15:27N 54°41' E 020°12'0 0.0
2018-May-23 15:00N 54°41' E 020°12'0 0.0
2018-May-23 14:30N 54°41' E 020°12'0 0.0
2018-May-23 13:57N 54°41' E 020°12'0 0.0
2018-May-23 13:27N 54°41' E 020°12'0 0.0
2018-May-23 13:00N 54°41' E 020°12'0 0.0
2018-May-23 12:27N 54°41' E 020°12'0 0.0
2018-May-23 11:48N 54°41' E 020°12'0 0.0
2018-May-23 11:18N 54°41' E 020°12'0 0.0
2018-May-23 10:12N 54°41' E 020°12'0 0.0
2018-May-23 09:51N 54°41' E 020°12'0 0.0
2018-May-23 09:30N 54°41' E 020°12'0 0.0
2018-May-23 09:00N 54°41' E 020°12'0 0.0
2018-May-23 08:30N 54°41' E 020°12'0 0.0
2018-May-23 07:39N 54°41' E 020°12'0 0.0
2018-May-23 06:21N 54°41' E 020°12'0 0.0
2018-May-23 06:00N 54°41' E 020°12'0 0.0
2018-May-23 05:30N 54°41' E 020°12'0 0.0
2018-May-23 05:00N 54°41' E 020°12'0 0.0
2018-May-23 04:06N 54°41' E 020°12'0 0.0
2018-May-23 03:54N 54°41' E 020°12'0 0.0
2018-May-23 03:24N 54°41' E 020°12'0 0.0
2018-May-23 03:00N 54°41' E 020°12'0 0.0
2018-May-23 02:24N 54°41' E 020°12'0 0.0
2018-May-23 02:00N 54°41' E 020°12'0 0.0
2018-May-23 01:30N 54°41' E 020°12'0 0.0
2018-May-23 00:57N 54°41' E 020°12'0 0.0
2018-May-23 00:30N 54°41' E 020°12'  

Dump ship's entire track history